Time;durP1;ratioP1;P1;durP2;ratioP2;P2;SDS_P1;SDS_P2;PMS_P1;PMS_P2;Temp;Humidity;BMP_temperature;BMP_pressure;BME280_temperature;BME280_humidity;BME280_pressure;Samples;Min_cycle;Max_cycle;Signal;HPM_P1;HPM_P2
2021/06/18 00:01:22;;;;;;;29.00;26.05;;;21.70;99.90;;;;;;4931136;29;20135;-68
2021/06/18 00:03:49;;;;;;;27.38;24.55;;;21.70;99.90;;;;;;4930830;29;20048;-68
2021/06/18 00:06:16;;;;;;;30.65;27.45;;;21.70;99.90;;;;;;4931351;29;20052;-68
2021/06/18 00:08:43;;;;;;;30.95;27.83;;;21.60;99.90;;;;;;4931174;29;20104;-68
2021/06/18 00:11:09;;;;;;;30.25;27.15;;;21.60;99.90;;;;;;4931155;29;20048;-68
2021/06/18 00:13:35;;;;;;;31.45;28.17;;;21.50;99.90;;;;;;4931295;29;20050;-67
2021/06/18 00:16:01;;;;;;;31.85;28.63;;;21.50;99.90;;;;;;4914589;29;20508;-68
2021/06/18 00:18:27;;;;;;;31.15;27.92;;;21.40;99.90;;;;;;4929769;29;20048;-68
2021/06/18 00:20:53;;;;;;;32.95;29.65;;;21.30;99.90;;;;;;4929541;29;20055;-68
2021/06/18 00:23:19;;;;;;;31.65;28.60;;;21.40;99.90;;;;;;4931011;29;20059;-68
2021/06/18 00:25:45;;;;;;;35.17;31.38;;;21.20;99.90;;;;;;4913381;29;20420;-68
2021/06/18 00:28:13;;;;;;;35.20;31.30;;;21.10;99.90;;;;;;4931201;29;20047;-68
2021/06/18 00:30:40;;;;;;;34.72;30.35;;;21.00;99.90;;;;;;4930534;29;20071;-68
2021/06/18 00:33:06;;;;;;;35.33;31.55;;;21.10;99.90;;;;;;4930583;29;20048;-68
2021/06/18 00:35:33;;;;;;;33.17;29.70;;;21.00;99.90;;;;;;4930513;29;20059;-68
2021/06/18 00:37:59;;;;;;;33.85;30.40;;;21.00;99.90;;;;;;4931099;29;20202;-68
2021/06/18 00:40:25;;;;;;;34.88;31.30;;;20.90;99.90;;;;;;4930660;29;20083;-69
2021/06/18 00:42:51;;;;;;;35.55;31.95;;;21.00;99.90;;;;;;4930322;29;20051;-68
2021/06/18 00:45:19;;;;;;;34.53;30.90;;;21.00;99.90;;;;;;4930525;29;20099;-68
2021/06/18 00:47:53;;;;;;;36.63;32.88;;;20.90;99.90;;;;;;4928731;29;20599;-68
2021/06/18 00:50:21;;;;;;;38.55;34.67;;;20.80;99.90;;;;;;4919102;29;20055;-68
2021/06/18 00:52:48;;;;;;;40.17;35.97;;;20.70;99.90;;;;;;4930187;29;20477;-68
2021/06/18 00:55:14;;;;;;;38.65;34.70;;;20.60;99.90;;;;;;4930305;29;20116;-68
2021/06/18 00:57:41;;;;;;;43.72;39.25;;;20.40;99.90;;;;;;4930741;29;20052;-68
2021/06/18 01:00:10;;;;;;;42.95;38.33;;;20.40;99.90;;;;;;4930138;29;20145;-68
2021/06/18 01:02:37;;;;;;;42.22;37.97;;;20.40;99.90;;;;;;4929665;29;20067;-69
2021/06/18 01:05:09;;;;;;;38.08;34.28;;;20.30;99.90;;;;;;4930794;29;20063;-69
2021/06/18 01:07:50;;;;;;;39.92;35.67;;;20.20;99.90;;;;;;4930703;29;20056;-67
2021/06/18 01:10:47;;;;;;;43.53;38.92;;;20.10;99.90;;;;;;4930249;29;20040;-68
2021/06/18 01:13:18;;;;;;;41.67;37.17;;;20.10;99.90;;;;;;4929733;29;20048;-67
2021/06/18 01:16:09;;;;;;;42.63;38.42;;;20.10;99.90;;;;;;4929833;29;20055;-67
2021/06/18 01:18:53;;;;;;;42.78;38.40;;;20.10;99.90;;;;;;4929890;29;20084;-67
2021/06/18 01:21:28;;;;;;;41.72;37.55;;;20.20;99.90;;;;;;4917736;29;20068;-67
2021/06/18 01:24:19;;;;;;;43.67;38.92;;;20.10;99.90;;;;;;4929287;29;20044;-68
2021/06/18 01:27:07;;;;;;;41.88;37.38;;;20.20;99.90;;;;;;4928658;29;20044;-68
2021/06/18 01:29:44;;;;;;;37.33;33.53;;;20.20;99.90;;;;;;4929311;29;20072;-68
2021/06/18 01:32:17;;;;;;;41.97;37.58;;;20.20;99.90;;;;;;4929589;29;20052;-68
2021/06/18 01:34:44;;;;;;;46.30;41.25;;;20.20;99.90;;;;;;4930146;29;20175;-68
2021/06/18 01:37:16;;;;;;;41.95;37.75;;;20.20;99.90;;;;;;4929451;29;20044;-68
2021/06/18 01:39:44;;;;;;;42.10;37.67;;;20.10;99.90;;;;;;4929451;29;20090;-68
2021/06/18 01:42:11;;;;;;;41.92;37.72;;;19.90;99.90;;;;;;4929232;29;20052;-69
2021/06/18 01:44:37;;;;;;;43.50;39.20;;;19.90;99.90;;;;;;4929597;29;20052;-68
2021/06/18 01:47:06;;;;;;;47.58;42.53;;;19.80;99.90;;;;;;4927952;29;20044;-68
2021/06/18 01:49:37;;;;;;;44.23;39.67;;;19.70;99.90;;;;;;4928917;29;20068;-68
2021/06/18 01:52:07;;;;;;;44.95;40.28;;;19.70;99.90;;;;;;4929285;29;20107;-68
2021/06/18 01:54:35;;;;;;;49.55;44.55;;;19.70;99.90;;;;;;4929266;29;20058;-67
2021/06/18 01:57:03;;;;;;;47.45;42.50;;;19.80;99.90;;;;;;4929794;29;20070;-68
2021/06/18 01:59:34;;;;;;;45.33;40.17;;;19.70;99.90;;;;;;4929351;29;20081;-68
2021/06/18 02:02:03;;;;;;;45.05;40.35;;;19.80;99.90;;;;;;4929034;29;20048;-68
2021/06/18 02:04:30;;;;;;;45.47;40.75;;;19.80;99.90;;;;;;4928854;29;20050;-68
2021/06/18 02:06:56;;;;;;;47.03;42.08;;;19.90;99.90;;;;;;4928740;29;20051;-68
2021/06/18 02:09:24;;;;;;;51.42;46.05;;;19.90;99.90;;;;;;4929140;29;20048;-68
2021/06/18 02:11:50;;;;;;;51.40;45.53;;;19.90;99.90;;;;;;4928881;29;20044;-68
2021/06/18 02:14:19;;;;;;;46.85;41.90;;;19.90;99.90;;;;;;4928871;29;20060;-68
2021/06/18 02:17:05;;;;;;;48.83;43.72;;;19.90;99.90;;;;;;4928461;29;20135;-68
2021/06/18 02:19:33;;;;;;;51.60;46.03;;;19.70;99.90;;;;;;4929299;29;20412;-68
2021/06/18 02:22:02;;;;;;;52.92;47.47;;;19.70;99.90;;;;;;4929492;29;20055;-68
2021/06/18 02:24:30;;;;;;;54.40;48.67;;;19.80;99.90;;;;;;4928394;29;20044;-67
2021/06/18 02:26:56;;;;;;;56.83;50.65;;;19.80;99.90;;;;;;4928647;29;20044;-67
2021/06/18 02:29:22;;;;;;;58.60;51.75;;;19.60;99.90;;;;;;4928604;29;20052;-68
2021/06/18 02:31:49;;;;;;;50.35;44.35;;;19.60;99.90;;;;;;4929388;29;20044;-68
2021/06/18 02:34:15;;;;;;;54.00;45.85;;;19.60;99.90;;;;;;4928414;29;20052;-68
2021/06/18 02:36:42;;;;;;;50.15;44.75;;;19.60;99.90;;;;;;4920011;29;20048;-69
2021/06/18 02:39:10;;;;;;;53.90;48.30;;;19.60;99.90;;;;;;4928792;29;20070;-68
2021/06/18 02:41:37;;;;;;;53.25;47.53;;;19.60;99.90;;;;;;4928779;29;20052;-68
2021/06/18 02:44:03;;;;;;;50.85;45.65;;;19.60;99.90;;;;;;4928222;29;20504;-68
2021/06/18 02:46:57;;;;;;;55.97;49.97;;;19.60;99.90;;;;;;4928371;29;20052;-68
2021/06/18 02:49:44;;;;;;;50.97;45.50;;;19.70;99.90;;;;;;4918779;29;20056;-68
2021/06/18 02:52:17;;;;;;;58.30;49.85;;;19.60;99.90;;;;;;4916890;29;20060;-67
2021/06/18 02:54:51;;;;;;;57.38;51.28;;;19.50;99.90;;;;;;4928146;29;20050;-67
2021/06/18 02:57:22;;;;;;;56.92;50.90;;;19.50;99.90;;;;;;4928394;29;20048;-68
2021/06/18 03:00:21;;;;;;;59.58;52.80;;;19.50;99.90;;;;;;4928489;29;20052;-68
2021/06/18 03:02:54;;;;;;;55.08;49.20;;;19.50;99.90;;;;;;4869967;29;20065;-68
2021/06/18 03:05:22;;;;;;;60.70;54.28;;;19.50;99.90;;;;;;4870081;29;20101;-68
2021/06/18 03:08:00;;;;;;;56.55;50.45;;;19.50;99.90;;;;;;4870638;29;20082;-68
2021/06/18 03:10:28;;;;;;;52.03;46.42;;;19.50;99.90;;;;;;4870631;29;20431;-68
2021/06/18 03:13:02;;;;;;;53.83;47.70;;;19.50;99.90;;;;;;4870023;29;20094;-68
2021/06/18 03:15:32;;;;;;;51.55;46.08;;;19.50;99.90;;;;;;4854294;29;20049;-68
2021/06/18 03:17:59;;;;;;;53.47;47.75;;;19.60;99.90;;;;;;4870027;29;20046;-66
2021/06/18 03:20:26;;;;;;;52.45;47.03;;;19.60;99.90;;;;;;4869897;29;20140;-68
2021/06/18 03:22:59;;;;;;;52.17;46.67;;;19.70;99.90;;;;;;4870655;29;20105;-68
2021/06/18 03:25:26;;;;;;;52.47;46.83;;;19.60;99.90;;;;;;4869740;29;20081;-68
2021/06/18 03:27:53;;;;;;;51.45;45.90;;;19.60;99.90;;;;;;4869816;29;20064;-68
2021/06/18 03:30:20;;;;;;;51.53;45.90;;;19.60;99.90;;;;;;4871906;29;20053;-68
2021/06/18 03:32:48;;;;;;;50.17;44.60;;;19.70;99.90;;;;;;4872958;29;20049;-68
2021/06/18 03:35:15;;;;;;;57.28;51.30;;;19.60;99.90;;;;;;4873121;29;20060;-68
2021/06/18 03:37:42;;;;;;;51.45;45.85;;;19.60;99.90;;;;;;4887109;29;20108;-68
2021/06/18 03:40:09;;;;;;;58.83;50.67;;;19.60;99.90;;;;;;4931604;29;20056;-68
2021/06/18 03:42:38;;;;;;;52.35;46.78;;;19.60;99.90;;;;;;4931613;29;20478;-68
2021/06/18 03:45:07;;;;;;;50.40;44.90;;;19.60;99.90;;;;;;4931486;29;20044;-68
2021/06/18 03:47:34;;;;;;;53.58;47.97;;;19.50;99.90;;;;;;4931210;29;20048;-68
2021/06/18 03:50:01;;;;;;;55.95;48.33;;;19.50;99.90;;;;;;4931977;29;20071;-68
2021/06/18 03:52:27;;;;;;;55.13;48.08;;;19.60;99.90;;;;;;4931374;29;20083;-68
2021/06/18 03:54:54;;;;;;;49.90;44.42;;;19.60;99.90;;;;;;4931255;29;20159;-68
2021/06/18 03:57:21;;;;;;;50.17;44.83;;;19.70;99.90;;;;;;4931228;29;20048;-68
2021/06/18 03:59:47;;;;;;;51.13;45.63;;;19.70;99.90;;;;;;4930174;29;20060;-69
2021/06/18 04:02:15;;;;;;;53.70;47.83;;;19.70;99.90;;;;;;4931174;29;20145;-68
2021/06/18 04:04:43;;;;;;;51.33;44.15;;;19.70;99.90;;;;;;4931178;29;20044;-67
2021/06/18 04:07:10;;;;;;;50.97;44.65;;;19.80;99.90;;;;;;4931432;29;20048;-68
2021/06/18 04:09:40;;;;;;;49.25;44.08;;;19.80;99.90;;;;;;4930749;29;20040;-68
2021/06/18 04:12:07;;;;;;;46.58;41.53;;;19.80;99.90;;;;;;4926088;29;20055;-68
2021/06/18 04:14:34;;;;;;;54.60;48.78;;;19.90;99.90;;;;;;4926944;29;20085;-66
2021/06/18 04:17:02;;;;;;;50.80;45.67;;;19.90;99.90;;;;;;4927866;29;20055;-67
2021/06/18 04:19:30;;;;;;;54.45;47.08;;;20.00;99.90;;;;;;4930659;29;20044;-67
2021/06/18 04:21:59;;;;;;;46.47;41.42;;;20.00;99.90;;;;;;4928075;29;20104;-67
2021/06/18 04:24:25;;;;;;;43.38;38.75;;;19.90;99.90;;;;;;4927459;29;20052;-67
2021/06/18 04:26:50;;;;;;;47.08;42.00;;;19.90;99.90;;;;;;4930477;29;20048;-67
2021/06/18 04:29:16;;;;;;;47.72;42.80;;;20.00;99.90;;;;;;4929862;29;20039;-67
2021/06/18 04:31:44;;;;;;;47.08;42.22;;;20.00;99.90;;;;;;4927978;29;20044;-68
2021/06/18 04:34:10;;;;;;;45.15;40.42;;;20.10;99.90;;;;;;4930147;29;20520;-67
2021/06/18 04:36:36;;;;;;;47.38;42.38;;;20.10;99.90;;;;;;4930008;29;20095;-67
2021/06/18 04:39:06;;;;;;;48.78;42.00;;;20.20;99.90;;;;;;4930389;29;20045;-68
2021/06/18 04:41:32;;;;;;;;;;;20.20;99.90;;;;;;4929427;29;20055;-67
2021/06/18 04:43:58;;;;;;;49.17;43.80;;;20.20;99.90;;;;;;4929082;29;19923;-68
2021/06/18 04:46:24;;;;;;;44.72;39.95;;;20.20;99.90;;;;;;4929001;29;20044;-68
2021/06/18 04:48:50;;;;;;;39.47;35.00;;;20.20;99.90;;;;;;4929559;29;20036;-68
2021/06/18 04:51:19;;;;;;;42.88;38.28;;;20.30;99.90;;;;;;4930311;29;20043;-68
2021/06/18 04:53:46;;;;;;;46.25;41.35;;;20.30;99.90;;;;;;4929549;29;20048;-68
2021/06/18 04:56:12;;;;;;;46.35;41.58;;;20.30;99.90;;;;;;4928759;29;20048;-68
2021/06/18 04:58:39;;;;;;;44.42;40.03;;;20.30;99.90;;;;;;4930001;29;20080;-68
2021/06/18 05:01:06;;;;;;;51.33;45.85;;;20.40;99.90;;;;;;4926476;29;20067;-68
2021/06/18 05:03:32;;;;;;;50.20;45.00;;;20.40;99.90;;;;;;4918996;29;20124;-68
2021/06/18 05:05:58;;;;;;;48.75;41.65;;;20.50;99.90;;;;;;4925910;29;20048;-68
2021/06/18 05:08:24;;;;;;;46.83;41.33;;;20.50;99.90;;;;;;4929479;29;20071;-69
2021/06/18 05:10:51;;;;;;;49.05;43.90;;;20.50;99.90;;;;;;4929793;29;20044;-67
2021/06/18 05:13:16;;;;;;;47.08;41.78;;;20.50;99.90;;;;;;4926909;29;20067;-66
2021/06/18 05:15:42;;;;;;;45.15;40.20;;;20.50;99.90;;;;;;4929450;29;20040;-65
2021/06/18 05:18:08;;;;;;;47.47;42.60;;;20.60;99.90;;;;;;4917823;29;20083;-65
2021/06/18 05:20:34;;;;;;;46.03;41.05;;;20.60;99.90;;;;;;4927452;29;20044;-65
2021/06/18 05:23:00;;;;;;;46.72;41.83;;;20.70;99.90;;;;;;4918351;29;20048;-66
2021/06/18 05:25:26;;;;;;;42.95;38.40;;;20.70;99.90;;;;;;4929452;29;20500;-66
2021/06/18 05:27:52;;;;;;;41.53;36.97;;;20.70;99.90;;;;;;4927821;29;20044;-65
2021/06/18 05:30:18;;;;;;;45.47;40.75;;;20.70;99.90;;;;;;4928056;29;20128;-68
2021/06/18 05:32:47;;;;;;;43.67;38.97;;;20.80;99.90;;;;;;4926192;29;20051;-68
2021/06/18 05:35:15;;;;;;;40.90;36.65;;;20.80;99.90;;;;;;4928946;29;20143;-67
2021/06/18 05:37:41;;;;;;;41.97;37.28;;;20.80;99.90;;;;;;4926730;29;20104;-68
2021/06/18 05:40:08;;;;;;;41.45;37.25;;;20.80;99.90;;;;;;4929316;29;20052;-68
2021/06/18 05:42:35;;;;;;;40.05;35.90;;;20.90;99.90;;;;;;4926703;29;20052;-68
2021/06/18 05:45:01;;;;;;;197.07;45.53;;;20.90;99.90;;;;;;4926561;29;20044;-68
2021/06/18 05:47:27;;;;;;;39.92;36.13;;;20.90;99.90;;;;;;4925213;29;20044;-68
2021/06/18 05:49:53;;;;;;;38.55;34.55;;;21.00;99.90;;;;;;4927661;29;20511;-68
2021/06/18 05:52:19;;;;;;;36.38;32.22;;;21.00;99.90;;;;;;4925227;29;20097;-66
2021/06/18 05:54:44;;;;;;;38.42;34.55;;;20.90;99.90;;;;;;4925101;29;20424;-68
2021/06/18 05:57:11;;;;;;;33.33;29.88;;;20.90;99.90;;;;;;4923572;29;20064;-68
2021/06/18 05:59:37;;;;;;;35.20;31.52;;;20.90;99.90;;;;;;4922556;29;20049;-67
2021/06/18 06:02:03;;;;;;;36.90;33.20;;;20.90;99.90;;;;;;4926325;29;20127;-67
2021/06/18 06:04:29;;;;;;;30.38;27.35;;;20.90;99.90;;;;;;4917910;29;20052;-67
2021/06/18 06:06:55;;;;;;;35.90;32.30;;;21.00;99.90;;;;;;4922604;29;20453;-65
2021/06/18 06:09:21;;;;;;;36.38;32.42;;;21.10;99.90;;;;;;4897261;29;20056;-65
2021/06/18 06:11:46;;;;;;;31.40;28.10;;;21.20;99.90;;;;;;4923130;29;20066;-65
2021/06/18 06:14:19;;;;;;;29.27;26.25;;;21.30;99.90;;;;;;4911338;29;20127;-65
2021/06/18 06:16:46;;;;;;;31.90;28.67;;;21.30;99.90;;;;;;4906079;29;20059;-67
2021/06/18 06:19:13;;;;;;;32.80;29.50;;;21.40;99.90;;;;;;4925188;29;20067;-65
2021/06/18 06:21:40;;;;;;;67.80;31.83;;;21.40;99.90;;;;;;4922542;29;20099;-66
2021/06/18 06:24:09;;;;;;;33.13;29.75;;;21.30;99.90;;;;;;4926112;29;20155;-66
2021/06/18 06:26:35;;;;;;;31.55;27.98;;;21.30;99.90;;;;;;4919674;29;20166;-66
2021/06/18 06:29:01;;;;;;;29.48;26.10;;;21.30;99.90;;;;;;4927244;29;20051;-65
2021/06/18 06:31:27;;;;;;;30.48;27.52;;;21.20;99.90;;;;;;4917279;28;20078;-65
2021/06/18 06:33:53;;;;;;;31.33;27.98;;;21.20;99.90;;;;;;4902823;29;20063;-66
2021/06/18 06:36:18;;;;;;;32.83;29.60;;;21.20;99.90;;;;;;4916151;29;20040;-66
2021/06/18 06:38:44;;;;;;;28.40;25.58;;;21.30;99.90;;;;;;4925165;29;20051;-66
2021/06/18 06:41:11;;;;;;;32.03;28.73;;;21.30;99.90;;;;;;4923212;29;20338;-66
2021/06/18 06:43:37;;;;;;;32.20;29.08;;;21.50;99.90;;;;;;4926078;29;20064;-66
2021/06/18 06:46:03;;;;;;;32.58;29.33;;;21.60;99.90;;;;;;4921903;29;20048;-66
2021/06/18 06:48:30;;;;;;;35.00;31.60;;;21.60;99.90;;;;;;4923741;29;20055;-66
2021/06/18 06:50:57;;;;;;;31.75;28.35;;;21.70;99.90;;;;;;4924502;29;20083;-66
2021/06/18 06:53:22;;;;;;;32.25;29.20;;;21.70;99.90;;;;;;4922790;29;20571;-67
2021/06/18 06:55:48;;;;;;;30.63;27.45;;;21.70;99.90;;;;;;4924651;29;20059;-66
2021/06/18 06:58:16;;;;;;;30.63;27.60;;;21.70;99.90;;;;;;4921477;29;20055;-66
2021/06/18 07:00:42;;;;;;;34.70;31.45;;;21.70;99.90;;;;;;4926188;29;20123;-66
2021/06/18 07:03:08;;;;;;;32.50;29.55;;;21.80;99.90;;;;;;4921347;29;20047;-66
2021/06/18 07:05:34;;;;;;;29.00;26.13;;;21.80;99.90;;;;;;4932967;29;20082;-70
2021/06/18 07:08:12;;;;;;;33.72;30.25;;;21.90;99.90;;;;;;4922671;29;20051;-72
2021/06/18 07:10:37;;;;;;;33.28;30.10;;;22.00;99.90;;;;;;4929665;29;20048;-70
2021/06/18 07:13:03;;;;;;;30.92;27.83;;;22.00;99.90;;;;;;4914529;29;20055;-70
2021/06/18 07:15:29;;;;;;;32.03;28.65;;;22.10;99.90;;;;;;4933026;29;20595;-70
2021/06/18 07:17:56;;;;;;;31.23;28.25;;;22.10;99.90;;;;;;4916304;29;20083;-69
2021/06/18 07:20:22;;;;;;;28.67;25.88;;;22.10;99.90;;;;;;4935166;29;20044;-69
2021/06/18 07:22:47;;;;;;;29.85;26.85;;;22.30;99.90;;;;;;4923453;29;20052;-70
2021/06/18 07:25:13;;;;;;;31.55;28.52;;;22.30;99.90;;;;;;4934060;29;20492;-70
2021/06/18 07:27:39;;;;;;;29.33;26.58;;;22.30;99.90;;;;;;4921096;29;20142;-70
2021/06/18 07:30:06;;;;;;;32.10;29.10;;;22.40;99.90;;;;;;4934170;29;20051;-69
2021/06/18 07:32:31;;;;;;;32.10;29.10;;;22.50;99.90;;;;;;4916825;29;20048;-70
2021/06/18 07:34:57;;;;;;;34.45;31.15;;;22.60;99.90;;;;;;4931743;29;20048;-70
2021/06/18 07:37:23;;;;;;;35.30;31.67;;;22.60;99.90;;;;;;4919636;29;20064;-71
2021/06/18 07:39:49;;;;;;;32.63;29.52;;;22.70;99.90;;;;;;4938300;29;20606;-68
2021/06/18 07:42:15;;;;;;;29.10;26.35;;;22.80;99.90;;;;;;4917258;29;20052;-69
2021/06/18 07:44:41;;;;;;;31.08;28.15;;;22.80;99.90;;;;;;4940252;29;20040;-69
2021/06/18 07:47:07;;;;;;;32.22;29.02;;;22.90;99.90;;;;;;4916991;29;20048;-71
2021/06/18 07:49:34;;;;;;;29.48;26.55;;;23.00;99.90;;;;;;4940352;29;20040;-71
2021/06/18 07:52:01;;;;;;;30.10;27.17;;;23.10;99.90;;;;;;4926253;29;20052;-69
2021/06/18 07:54:27;;;;;;;27.88;25.27;;;23.30;99.90;;;;;;4930498;29;20048;-69
2021/06/18 07:56:54;;;;;;;30.27;27.45;;;23.40;99.90;;;;;;4925171;29;20048;-71
2021/06/18 07:59:21;;;;;;;28.40;25.50;;;23.50;99.90;;;;;;4928887;29;20051;-70
2021/06/18 08:01:47;;;;;;;26.48;23.85;;;23.60;99.90;;;;;;4926559;29;20051;-70
2021/06/18 08:04:13;;;;;;;25.52;23.15;;;23.80;99.90;;;;;;4931282;29;20059;-69
2021/06/18 08:06:38;;;;;;;24.17;21.88;;;23.90;99.90;;;;;;4925264;29;20051;-69
2021/06/18 08:09:05;;;;;;;23.20;21.00;;;24.10;99.90;;;;;;4928382;29;20087;-69
2021/06/18 08:11:31;;;;;;;23.02;20.80;;;24.20;99.90;;;;;;4910118;29;20989;-69
2021/06/18 08:13:57;;;;;;;23.50;21.25;;;24.30;99.90;;;;;;4927993;29;20067;-69
2021/06/18 08:16:23;;;;;;;23.92;21.52;;;24.40;99.90;;;;;;4926880;29;20111;-69
2021/06/18 08:18:49;;;;;;;23.08;20.92;;;24.40;99.90;;;;;;4918174;29;20099;-69
2021/06/18 08:21:15;;;;;;;22.50;20.35;;;24.50;99.90;;;;;;4928109;29;20048;-68
2021/06/18 08:23:40;;;;;;;22.95;20.60;;;24.60;99.90;;;;;;4926228;29;20058;-68
2021/06/18 08:26:07;;;;;;;23.52;21.45;;;24.60;99.90;;;;;;4929863;29;20052;-68
2021/06/18 08:28:33;;;;;;;23.27;21.00;;;24.70;99.90;;;;;;4923548;29;20083;-69
2021/06/18 08:30:59;;;;;;;22.63;20.52;;;24.70;99.90;;;;;;4929353;29;20056;-69
2021/06/18 08:33:25;;;;;;;22.65;20.25;;;24.70;99.90;;;;;;4916984;29;20044;-69
2021/06/18 08:35:51;;;;;;;18.52;16.73;;;24.70;99.90;;;;;;4917012;29;20064;-69
2021/06/18 08:38:17;;;;;;;21.13;19.23;;;24.70;99.90;;;;;;4921063;29;20063;-69
2021/06/18 08:40:43;;;;;;;23.65;21.45;;;24.70;99.90;;;;;;4930505;29;20120;-69
2021/06/18 08:43:09;;;;;;;22.77;20.48;;;24.70;99.90;;;;;;4921015;29;20064;-68
2021/06/18 08:45:35;;;;;;;20.38;18.25;;;24.60;99.90;;;;;;4930744;29;20060;-68
2021/06/18 08:48:02;;;;;;;19.42;17.45;;;24.60;99.90;;;;;;4916482;29;20048;-68
2021/06/18 08:50:28;;;;;;;20.40;18.58;;;24.70;99.90;;;;;;4935678;29;20052;-67
2021/06/18 08:52:57;;;;;;;21.75;19.70;;;24.80;99.90;;;;;;4918898;29;20538;-70
2021/06/18 08:55:25;;;;;;;20.80;18.90;;;24.80;99.90;;;;;;4933022;29;20055;-68
2021/06/18 08:57:52;;;;;;;20.20;18.27;;;24.90;99.90;;;;;;4914716;29;20306;-68
2021/06/18 09:00:21;;;;;;;22.08;20.08;;;25.10;99.90;;;;;;4916831;29;20059;-69
2021/06/18 09:02:47;;;;;;;23.85;21.65;;;25.20;99.90;;;;;;4914591;29;20055;-69
2021/06/18 09:05:14;;;;;;;22.13;20.13;;;25.20;99.90;;;;;;4933174;29;20047;-68
2021/06/18 09:08:01;;;;;;;21.20;19.30;;;25.40;99.90;;;;;;4911947;29;20048;-68
2021/06/18 09:10:31;;;;;;;19.77;17.88;;;25.50;99.90;;;;;;4919553;29;20055;-68
2021/06/18 09:13:10;;;;;;;18.50;16.80;;;25.60;99.90;;;;;;4901984;29;20059;-68
2021/06/18 09:15:38;;;;;;;18.00;16.33;;;25.60;99.90;;;;;;4929855;29;20084;-68
2021/06/18 09:18:39;;;;;;;13.98;12.63;;;25.70;99.90;;;;;;4907621;29;20055;-69
2021/06/18 09:21:05;;;;;;;12.70;11.57;;;25.60;99.90;;;;;;4926729;29;20047;-69
2021/06/18 09:23:42;;;;;;;10.45;9.55;;;25.70;99.90;;;;;;4919407;29;20085;-69
2021/06/18 09:26:27;;;;;;;9.88;8.98;;;25.60;99.90;;;;;;4924556;29;20075;-69
2021/06/18 09:29:11;;;;;;;11.10;9.93;;;25.70;99.90;;;;;;4923050;29;20055;-69
2021/06/18 09:31:49;;;;;;;13.18;11.98;;;25.50;99.90;;;;;;4914464;29;20052;-69
2021/06/18 09:37:22;;;;;;;11.55;10.45;;;25.60;99.90;;;;;;4921989;29;20052;-68
2021/06/18 09:40:16;;;;;;;10.00;9.00;;;25.70;99.90;;;;;;4924901;29;20058;-67
2021/06/18 09:42:44;;;;;;;51.45;12.18;;;25.80;99.90;;;;;;4911402;29;20048;-68
2021/06/18 09:45:12;;;;;;;10.70;9.43;;;25.80;99.90;;;;;;4927221;29;20140;-68
2021/06/18 09:47:40;;;;;;;11.90;10.80;;;25.90;99.90;;;;;;4906880;29;20067;-69
2021/06/18 09:50:25;;;;;;;10.63;9.68;;;25.90;99.90;;;;;;4920183;29;20207;-68
2021/06/18 09:52:51;;;;;;;7.63;6.95;;;26.10;99.90;;;;;;4913008;29;20075;-68
2021/06/18 09:55:23;;;;;;;8.50;7.80;;;26.20;99.90;;;;;;4919421;29;20396;-68
2021/06/18 09:57:54;;;;;;;8.07;7.28;;;26.30;99.90;;;;;;4909830;29;20127;-68
2021/06/18 10:00:26;;;;;;;8.77;7.90;;;26.40;99.90;;;;;;4922442;29;20048;-67
2021/06/18 10:02:56;;;;;;;9.52;8.68;;;26.40;99.90;;;;;;4912867;29;20123;-68
2021/06/18 10:05:32;;;;;;;9.35;8.27;;;26.50;99.90;;;;;;4934726;29;20305;-67
2021/06/18 10:07:58;;;;;;;8.65;7.95;;;26.50;99.90;;;;;;4902755;29;20057;-68
2021/06/18 10:10:33;;;;;;;9.02;8.23;;;26.60;99.90;;;;;;4931521;29;20048;-68
2021/06/18 10:13:00;;;;;;;8.50;7.60;;;26.70;99.90;;;;;;4913480;29;20036;-68
2021/06/18 10:15:32;;;;;;;9.65;7.60;;;26.70;99.90;;;;;;4934169;29;20063;-68
2021/06/18 10:17:58;;;;;;;8.52;7.60;;;26.70;99.90;;;;;;4904396;29;20111;-68
2021/06/18 10:20:31;;;;;;;8.70;7.82;;;26.70;99.90;;;;;;4918408;29;20047;-69
2021/06/18 10:23:12;;;;;;;7.97;6.78;;;26.80;99.90;;;;;;4912729;29;20062;-69
2021/06/18 10:25:44;;;;;;;9.35;8.38;;;26.80;99.90;;;;;;4930002;29;20121;-67
2021/06/18 10:28:19;;;;;;;6.07;5.57;;;26.90;99.90;;;;;;4913824;29;20568;-67
2021/06/18 10:30:50;;;;;;;8.10;7.03;;;27.00;99.90;;;;;;4929269;29;20115;-67
2021/06/18 10:33:28;;;;;;;7.00;6.28;;;27.10;99.90;;;;;;4915579;29;20467;-67
2021/06/18 10:36:10;;;;;;;6.38;5.78;;;27.10;99.90;;;;;;4930264;29;20044;-68
2021/06/18 10:38:44;;;;;;;6.63;5.85;;;27.10;99.90;;;;;;4916473;29;20140;-67
2021/06/18 10:41:13;;;;;;;6.90;5.82;;;27.20;99.90;;;;;;4925289;29;20131;-67
2021/06/18 10:43:47;;;;;;;7.18;6.47;;;27.20;99.90;;;;;;4917714;29;20054;-67
2021/06/18 10:46:16;;;;;;;7.53;6.30;;;27.10;99.90;;;;;;4918647;28;20368;-67
2021/06/18 10:48:55;;;;;;;5.40;4.90;;;27.20;99.90;;;;;;4915593;29;20051;-67
2021/06/18 10:51:29;;;;;;;6.50;5.43;;;27.30;99.90;;;;;;4926559;29;20044;-67
2021/06/18 10:54:30;;;;;;;5.57;4.35;;;27.40;99.90;;;;;;4916051;29;20141;-67
2021/06/18 10:57:01;;;;;;;5.72;4.18;;;27.40;99.90;;;;;;4922768;29;20071;-67
2021/06/18 10:59:28;;;;;;;7.43;4.60;;;27.40;99.90;;;;;;4920672;29;20052;-66
2021/06/18 11:01:54;;;;;;;7.25;5.60;;;27.40;99.90;;;;;;4921914;29;20055;-67
2021/06/18 11:04:38;;;;;;;7.50;6.18;;;27.30;99.90;;;;;;4920800;29;20706;-67
2021/06/18 11:07:37;;;;;;;7.38;5.57;;;27.20;99.90;;;;;;4918000;29;20040;-67
2021/06/18 11:10:12;;;;;;;;;;;27.10;99.90;;;;;;4835500;29;20054;-67
2021/06/18 11:12:41;;;;;;;6.55;5.95;;;27.10;99.90;;;;;;4841452;29;19928;-67
2021/06/18 11:15:21;;;;;;;6.85;5.97;;;27.10;99.90;;;;;;4832775;29;20065;-67
2021/06/18 11:18:11;;;;;;;7.47;6.80;;;27.10;99.90;;;;;;4830990;29;20050;-67
2021/06/18 11:20:36;;;;;;;6.60;5.63;;;27.10;99.90;;;;;;4818704;29;20077;-67
2021/06/18 11:23:09;;;;;;;7.13;5.97;;;27.10;99.90;;;;;;4834784;29;20417;-67
2021/06/18 11:28:19;;;;;;;8.18;7.38;;;27.20;99.90;;;;;;4834806;29;20128;-67
2021/06/18 11:30:55;;;;;;;8.02;5.50;;;27.20;99.90;;;;;;4843840;29;20092;-67
2021/06/18 11:33:44;;;;;;;7.40;6.63;;;27.30;99.90;;;;;;4832922;29;20117;-67
2021/06/18 11:36:23;;;;;;;6.45;5.78;;;27.40;99.90;;;;;;4844267;29;20053;-68
2021/06/18 11:38:58;;;;;;;6.20;5.70;;;27.40;99.90;;;;;;4834953;29;20082;-67
2021/06/18 11:41:32;;;;;;;6.70;4.85;;;27.50;99.90;;;;;;4843519;29;20060;-67
2021/06/18 11:44:00;;;;;;;8.50;5.90;;;27.60;99.90;;;;;;4834771;29;20058;-67
2021/06/18 11:46:27;;;;;;;6.55;5.95;;;27.70;99.90;;;;;;4900921;29;20075;-68
2021/06/18 11:49:00;;;;;;;7.63;6.32;;;27.80;99.90;;;;;;4917584;29;20088;-69
2021/06/18 11:51:30;;;;;;;7.20;6.50;;;27.90;99.90;;;;;;4918839;29;20094;-68
2021/06/18 11:53:57;;;;;;;8.43;5.75;;;28.20;99.90;;;;;;4921997;29;20622;-68
2021/06/18 11:56:27;;;;;;;8.63;6.60;;;28.40;99.90;;;;;;4922914;29;20084;-68
2021/06/18 11:58:53;;;;;;;8.93;8.02;;;28.50;99.90;;;;;;4915091;29;20056;-68
2021/06/18 12:01:25;;;;;;;9.88;7.38;;;28.60;99.90;;;;;;4922419;29;20575;-68
2021/06/18 12:03:57;;;;;;;8.77;6.63;;;28.70;99.90;;;;;;4917595;29;20393;-69
2021/06/18 12:06:23;;;;;;;7.28;6.30;;;28.80;99.90;;;;;;4919683;29;20054;-68
2021/06/18 12:09:00;;;;;;;6.90;6.05;;;28.80;99.90;;;;;;4920303;29;20055;-68
2021/06/18 12:11:30;;;;;;;7.43;6.50;;;28.90;99.90;;;;;;4914182;29;20056;-67
2021/06/18 12:13:56;;;;;;;6.65;5.60;;;28.90;99.90;;;;;;4914175;29;20059;-68
2021/06/18 12:16:31;;;;;;;5.88;5.32;;;29.00;99.90;;;;;;4917547;29;20128;-67
2021/06/18 12:19:20;;;;;;;6.72;5.47;;;29.10;99.90;;;;;;4904776;29;20055;-68
2021/06/18 12:21:58;;;;;;;11.02;7.60;;;29.20;99.90;;;;;;4927178;29;20040;-68
2021/06/18 12:24:38;;;;;;;7.60;6.47;;;29.30;99.90;;;;;;4922109;29;20059;-68
2021/06/18 12:27:09;;;;;;;6.95;6.25;;;29.40;99.90;;;;;;4926062;29;20070;-68
2021/06/18 12:29:44;;;;;;;9.02;6.38;;;29.50;99.90;;;;;;4922907;29;20127;-67
2021/06/18 12:32:13;;;;;;;7.90;6.70;;;29.50;99.90;;;;;;4915096;29;20104;-67
2021/06/18 12:34:53;;;;;;;7.95;7.10;;;29.60;99.90;;;;;;4921852;29;20388;-67
2021/06/18 12:37:24;;;;;;;7.50;6.70;;;29.70;99.90;;;;;;4914212;29;20055;-67
2021/06/18 12:39:53;;;;;;;8.55;6.57;;;29.90;99.80;;;;;;4920087;29;20367;-67
2021/06/18 12:42:23;;;;;;;7.15;6.38;;;30.00;99.70;;;;;;4925096;29;20076;-68
2021/06/18 12:45:09;;;;;;;8.57;6.38;;;30.00;98.40;;;;;;4925399;29;20064;-68
2021/06/18 12:47:37;;;;;;;7.18;6.20;;;30.10;98.60;;;;;;4921446;29;20044;-68
2021/06/18 12:50:34;;;;;;;7.75;6.32;;;30.20;98.40;;;;;;4929067;29;20056;-68
2021/06/18 12:53:03;;;;;;;7.03;6.30;;;30.30;98.10;;;;;;4937047;29;20052;-69